Lehigh Valley International Airport
KABE : now visible

Airfield :











YOU CAN JOIN US ON...

 
LOGIN :

Register | Disclaimer

   EN    FR    IT 

 









Legend :    VFR   Marginal VFR   IFR   Intensive IFR   Very Intensive IFR
Visi :
Ceiling :
>= 8 km
>= 3000ft
5 to 8 km
1000 to 3000 ft
1500m to 5 km
500 to 1000 ft
800 to 1500m
200 to 500 ft
< 800m
< 200 ft
Symbols :   Thunderstorms  Fog  Heavy snow  Heavy precipitations  Wind > 20 kt






- Airport Elevation : 393 ft
- IATA code : ABE


KABE - Lehigh Valley International

CURRENT METAR :
  • 181251Z 09005KT 10SM OVC110 M06/M17 A3051 RMK AO2 SLP339 T10561172

EXPIRED METARs :
  • 181151Z 09003KT 10SM OVC100 M06/M16 A3055 RMK AO2 SLP352 T10561161 11056 21072 58020
  • 181051Z 00000KT 10SM CLR M06/M17 A3059 RMK AO2 SLP364 T10611167
  • 180951Z 00000KT 10SM CLR M06/M17 A3061 RMK AO2 SLP372 T10611167

TAF KABE
Valid from the 18 at 12:00 until the 19 at 12:00 UTC


181120Z 1812/1912 VRB02KT P6SM OVC150
FM181600 16005KT P6SM VCSH OVC050
TEMPO 1816/1819 2SM -SN BR OVC025
FM181900 16006KT 1SM -SN BR OVC020 WS020/23035KT
FM182200 17011KT 1 1/2SM -SNPL BR OVC007 WS020/23035KT
FM190000 17010KT 2SM -FZRAPL BR OVC005 WS020/23035KT
FM190300 20009KT 3SM BR OVC005 WS020/23035KT
FM190800 26008KT P6SM OVC025



MET'MAP, your aeronautical weather chart ! - Copyright ORBIFLY December 2007 - Disclaimer

ORBIFLY MET'MAP TEAM :

Programming & Development : Alexandra Zaïnal
Concept & original design : Baudouin d'Aumeries
Assistance for programming : Marc-Olivier Méhu
Technical & hardware support : Manuel Goepfert

Contact : metmap@orbifly.com




SOURCES & CREDITS :

   NOAA       Earth
Advisory